createdAt,value
2023-02-08T00:01:07.877Z,7.10
2023-02-08T00:03:36.054Z,8.17
2023-02-08T00:06:03.910Z,7.77
2023-02-08T00:08:33.136Z,6.47
2023-02-08T00:11:00.785Z,5.83
2023-02-08T00:13:28.686Z,7.10
2023-02-08T00:15:56.560Z,6.47
2023-02-08T00:18:25.621Z,6.93
2023-02-08T00:20:55.855Z,5.67
2023-02-08T00:23:23.710Z,6.27
2023-02-08T00:25:51.990Z,8.47
2023-02-08T00:28:20.482Z,6.37
2023-02-08T00:30:49.563Z,11.23
2023-02-08T00:33:17.178Z,9.70
2023-02-08T00:35:46.518Z,6.77
2023-02-08T00:38:14.406Z,8.43
2023-02-08T00:40:42.499Z,8.37
2023-02-08T00:43:10.511Z,6.73
2023-02-08T00:45:38.123Z,7.93
2023-02-08T00:48:05.710Z,9.47
2023-02-08T00:50:33.738Z,6.90
2023-02-08T00:53:02.826Z,9.23
2023-02-08T00:55:30.891Z,9.07
2023-02-08T00:57:58.507Z,7.00
2023-02-08T01:00:26.645Z,7.63
2023-02-08T01:02:54.354Z,11.33
2023-02-08T01:05:22.541Z,10.80
2023-02-08T01:07:50.187Z,7.03
2023-02-08T01:10:19.358Z,7.57
2023-02-08T01:12:46.940Z,9.87
2023-02-08T01:15:14.979Z,10.73
2023-02-08T01:17:42.604Z,7.57
2023-02-08T01:20:11.779Z,13.23
2023-02-08T01:22:39.398Z,10.93
2023-02-08T01:25:07.839Z,13.37
2023-02-08T01:27:38.753Z,7.43
2023-02-08T01:30:07.765Z,7.43
2023-02-08T01:32:36.065Z,10.17
2023-02-08T01:35:04.052Z,9.50
2023-02-08T01:37:31.849Z,7.10
2023-02-08T01:39:59.811Z,11.57
2023-02-08T01:42:27.570Z,12.03
2023-02-08T01:45:32.034Z,9.13
2023-02-08T01:48:07.567Z,11.70
2023-02-08T01:50:44.104Z,9.50
2023-02-08T01:53:12.417Z,12.53
2023-02-08T01:55:46.200Z,9.07
2023-02-08T01:58:16.319Z,10.20
2023-02-08T02:00:46.092Z,8.57
2023-02-08T02:03:14.735Z,15.27
2023-02-08T02:05:45.259Z,10.90
2023-02-08T02:08:14.198Z,13.60
2023-02-08T02:10:44.178Z,7.97
2023-02-08T02:13:14.665Z,10.77
2023-02-08T02:15:46.317Z,12.47
2023-02-08T02:18:23.156Z,14.13
2023-02-08T02:21:15.326Z,11.63
2023-02-08T02:24:14.713Z,12.37
2023-02-08T02:27:11.054Z,11.33
2023-02-08T02:30:12.731Z,10.43
2023-02-08T02:32:55.191Z,13.40
2023-02-08T02:35:30.808Z,10.37
2023-02-08T02:38:10.068Z,10.27
2023-02-08T02:40:48.602Z,10.07
2023-02-08T02:43:40.008Z,9.10
2023-02-08T02:46:17.084Z,12.57
2023-02-08T02:48:50.920Z,10.13
2023-02-08T02:51:25.165Z,10.67
2023-02-08T02:53:56.676Z,10.90
2023-02-08T02:56:28.911Z,10.13
2023-02-08T02:58:59.670Z,13.13
2023-02-08T03:01:30.110Z,10.93
2023-02-08T03:03:59.510Z,12.57
2023-02-08T03:06:42.823Z,12.87
2023-02-08T03:09:47.778Z,14.00
2023-02-08T03:12:31.060Z,9.37
2023-02-08T03:15:04.104Z,13.40
2023-02-08T03:17:40.436Z,14.33
2023-02-08T03:20:11.838Z,18.20
2023-02-08T03:22:46.652Z,13.37
2023-02-08T03:25:21.663Z,16.20
2023-02-08T03:27:58.171Z,14.40
2023-02-08T03:30:32.321Z,14.93
2023-02-08T03:33:06.777Z,13.83
2023-02-08T03:35:41.365Z,14.90
2023-02-08T03:38:12.309Z,15.90
2023-02-08T03:40:43.006Z,11.97
2023-02-08T03:43:17.096Z,14.33
2023-02-08T03:45:50.671Z,12.30
2023-02-08T03:48:21.226Z,16.00
2023-02-08T03:50:53.799Z,14.07
2023-02-08T03:53:24.359Z,18.03
2023-02-08T03:55:57.008Z,13.97
2023-02-08T03:58:29.938Z,15.30
2023-02-08T04:01:02.923Z,19.23
2023-02-08T04:03:32.413Z,16.33
2023-02-08T04:06:01.554Z,15.90
2023-02-08T04:08:29.493Z,13.47
2023-02-08T04:10:57.159Z,18.70
2023-02-08T04:13:24.764Z,16.30
2023-02-08T04:15:52.412Z,15.10
2023-02-08T04:18:20.496Z,17.50
2023-02-08T04:20:48.103Z,13.30
2023-02-08T04:23:17.699Z,13.73
2023-02-08T04:25:45.369Z,18.93
2023-02-08T04:28:13.938Z,13.73
2023-02-08T04:30:42.019Z,14.97
2023-02-08T04:33:11.827Z,16.13
2023-02-08T04:35:39.462Z,12.47
2023-02-08T04:38:07.257Z,13.40
2023-02-08T04:40:36.296Z,12.90
2023-02-08T04:43:04.285Z,18.33
2023-02-08T04:45:32.897Z,14.47
2023-02-08T04:48:02.550Z,20.33
2023-02-08T04:50:30.379Z,12.67
2023-02-08T04:52:58.313Z,14.87
2023-02-08T04:55:26.305Z,16.07
2023-02-08T04:57:55.260Z,14.57
2023-02-08T05:00:23.064Z,18.80
2023-02-08T05:02:54.618Z,19.70
2023-02-08T05:05:22.719Z,14.67
2023-02-08T05:07:51.380Z,15.97
2023-02-08T05:10:19.530Z,17.00
2023-02-08T05:12:47.423Z,15.40
2023-02-08T05:15:16.327Z,11.60
2023-02-08T05:17:44.187Z,17.23
2023-02-08T05:20:13.925Z,14.47
2023-02-08T05:22:41.859Z,21.93
2023-02-08T05:25:10.767Z,21.07
2023-02-08T05:27:38.561Z,14.67
2023-02-08T05:30:07.609Z,16.47
2023-02-08T05:32:36.644Z,14.67
2023-02-08T05:35:04.627Z,15.57
2023-02-08T05:37:32.203Z,16.13
2023-02-08T05:40:00.198Z,21.03
2023-02-08T05:42:28.036Z,18.53
2023-02-08T05:44:55.619Z,22.43
2023-02-08T05:47:23.211Z,17.07
2023-02-08T05:49:52.452Z,16.53
2023-02-08T05:52:20.043Z,16.40
2023-02-08T05:54:47.961Z,12.63
2023-02-08T05:57:15.559Z,12.13
2023-02-08T05:59:43.503Z,14.23
2023-02-08T06:02:11.289Z,21.27
2023-02-08T06:04:39.324Z,13.97
2023-02-08T06:07:08.300Z,18.40
2023-02-08T06:09:36.441Z,16.30
2023-02-08T06:12:04.232Z,16.93
2023-02-08T06:14:32.638Z,16.47
2023-02-08T06:17:00.285Z,12.07
2023-02-08T06:19:28.643Z,14.87
2023-02-08T06:21:56.453Z,14.33
2023-02-08T06:24:25.741Z,15.07
2023-02-08T06:26:53.307Z,19.97
2023-02-08T06:29:20.892Z,23.40
2023-02-08T06:31:48.822Z,19.47
2023-02-08T06:34:16.681Z,18.20
2023-02-08T06:36:45.340Z,16.40
2023-02-08T06:39:12.984Z,17.67
2023-02-08T06:41:41.917Z,16.00
2023-02-08T06:44:09.504Z,15.07
2023-02-08T06:46:37.100Z,16.23
2023-02-08T06:49:05.044Z,17.77
2023-02-08T06:51:32.658Z,15.37
2023-02-08T06:54:00.296Z,14.20
2023-02-08T06:56:27.888Z,15.63
2023-02-08T06:58:57.150Z,14.90
2023-02-08T07:01:25.282Z,20.77
2023-02-08T07:03:52.906Z,17.70
2023-02-08T07:06:21.294Z,16.17
2023-02-08T07:08:48.964Z,18.83
2023-02-08T07:11:19.800Z,20.33
2023-02-08T07:13:48.684Z,15.30
2023-02-08T07:16:18.880Z,17.77
2023-02-08T07:18:46.672Z,14.63
2023-02-08T07:21:14.632Z,21.93
2023-02-08T07:23:42.556Z,17.73
2023-02-08T07:26:12.614Z,15.23
2023-02-08T07:28:40.396Z,17.63
2023-02-08T07:31:08.985Z,16.83
2023-02-08T07:33:38.403Z,13.50
2023-02-08T07:36:07.927Z,13.00
2023-02-08T07:38:36.717Z,20.27
2023-02-08T07:41:06.004Z,23.87
2023-02-08T07:43:35.354Z,17.70
2023-02-08T07:46:08.719Z,19.00
2023-02-08T07:48:40.159Z,14.63
2023-02-08T07:51:09.972Z,17.47
2023-02-08T07:53:38.004Z,16.00
2023-02-08T07:56:06.509Z,14.77
2023-02-08T07:58:34.106Z,23.80
2023-02-08T08:01:12.522Z,15.20
2023-02-08T08:03:50.565Z,18.07
2023-02-08T08:06:19.010Z,15.80
2023-02-08T08:08:47.634Z,19.40
2023-02-08T08:11:15.677Z,18.67
2023-02-08T08:13:43.587Z,13.90
2023-02-08T08:16:11.699Z,18.27
2023-02-08T08:18:39.324Z,18.57
2023-02-08T08:21:08.957Z,16.33
2023-02-08T08:23:37.184Z,17.50
2023-02-08T08:26:09.135Z,13.17
2023-02-08T08:28:37.198Z,12.97
2023-02-08T08:31:05.180Z,18.07
2023-02-08T08:33:32.812Z,17.20
2023-02-08T08:36:01.033Z,18.53
2023-02-08T08:38:29.940Z,18.93
2023-02-08T08:40:58.111Z,18.37
2023-02-08T08:43:25.761Z,16.83
2023-02-08T08:45:54.003Z,16.97
2023-02-08T08:48:21.600Z,15.87
2023-02-08T08:50:50.390Z,13.83
2023-02-08T08:53:19.117Z,12.63
2023-02-08T08:55:48.544Z,14.57
2023-02-08T08:58:16.518Z,16.00
2023-02-08T09:00:44.121Z,15.73
2023-02-08T09:03:12.486Z,17.50
2023-02-08T09:05:40.194Z,14.13
2023-02-08T09:08:07.873Z,18.23
2023-02-08T09:10:35.455Z,15.70
2023-02-08T09:13:05.358Z,16.87
2023-02-08T09:15:32.969Z,12.97
2023-02-08T09:18:00.889Z,20.17
2023-02-08T09:20:28.516Z,11.57
2023-02-08T09:22:56.961Z,16.57
2023-02-08T09:25:24.945Z,13.47
2023-02-08T09:27:53.079Z,14.37
2023-02-08T09:30:22.216Z,12.60
2023-02-08T09:32:50.427Z,13.33
2023-02-08T09:35:18.041Z,18.13
2023-02-08T09:37:46.268Z,12.10
2023-02-08T09:40:23.472Z,14.67
2023-02-08T09:42:59.228Z,15.07
2023-02-08T09:45:51.078Z,14.63
2023-02-08T09:48:29.635Z,16.20
2023-02-08T09:51:01.974Z,11.50
2023-02-08T09:53:34.323Z,11.10
2023-02-08T09:56:05.726Z,13.63
2023-02-08T09:58:40.687Z,11.70
2023-02-08T10:01:18.587Z,15.97
2023-02-08T10:03:48.306Z,9.30
2023-02-08T10:06:18.245Z,12.47
2023-02-08T10:08:47.704Z,11.30
2023-02-08T10:11:40.987Z,13.10
2023-02-08T10:14:23.473Z,10.37
2023-02-08T10:17:05.092Z,15.73
2023-02-08T10:19:50.946Z,13.07
2023-02-08T10:22:29.916Z,11.90
2023-02-08T10:25:17.932Z,11.30
2023-02-08T10:27:58.550Z,10.33
2023-02-08T10:30:33.543Z,11.67
2023-02-08T10:33:08.060Z,10.07
2023-02-08T10:35:38.852Z,10.43
2023-02-08T10:38:26.613Z,10.77
2023-02-08T10:40:59.703Z,11.73
2023-02-08T10:43:38.374Z,11.17
2023-02-08T10:46:13.110Z,11.40
2023-02-08T10:48:53.732Z,15.47
2023-02-08T10:51:22.712Z,8.93
2023-02-08T10:53:51.244Z,13.13
2023-02-08T10:56:32.201Z,10.37
2023-02-08T10:59:01.568Z,10.33
2023-02-08T11:01:29.841Z,12.20
2023-02-08T11:04:07.466Z,9.87
2023-02-08T11:06:35.081Z,10.80
2023-02-08T11:09:03.435Z,13.97
2023-02-08T11:11:36.842Z,11.37
2023-02-08T11:14:10.619Z,14.63
2023-02-08T11:16:39.266Z,11.63
2023-02-08T11:19:22.795Z,10.23
2023-02-08T11:21:52.994Z,11.30
2023-02-08T11:24:29.099Z,11.63
2023-02-08T11:26:57.330Z,9.87
2023-02-08T11:29:27.461Z,10.03
2023-02-08T11:32:01.080Z,9.27
2023-02-08T11:34:33.159Z,9.87
2023-02-08T11:37:03.603Z,10.40
2023-02-08T11:39:39.328Z,8.70
2023-02-08T11:42:08.232Z,13.43
2023-02-08T11:44:38.610Z,11.13
2023-02-08T11:47:08.637Z,12.73
2023-02-08T11:49:40.839Z,13.10
2023-02-08T11:52:21.163Z,8.83
2023-02-08T11:54:49.268Z,12.10
2023-02-08T11:57:20.350Z,7.80
2023-02-08T11:59:49.826Z,8.93
2023-02-08T12:02:35.809Z,8.93
2023-02-08T12:05:12.494Z,6.97
2023-02-08T12:07:53.961Z,7.20
2023-02-08T12:10:58.645Z,9.63
2023-02-08T12:13:51.342Z,8.50
2023-02-08T12:16:34.380Z,8.27
2023-02-08T12:19:35.504Z,11.97
2023-02-08T12:22:08.633Z,9.53
2023-02-08T12:24:49.127Z,11.80
2023-02-08T12:27:28.242Z,13.10
2023-02-08T12:30:08.338Z,8.77
2023-02-08T12:32:53.942Z,8.27
2023-02-08T12:36:01.467Z,11.47
2023-02-08T12:39:17.824Z,8.67
2023-02-08T12:41:56.372Z,7.57
2023-02-08T12:44:36.810Z,8.87
2023-02-08T12:47:18.871Z,6.87
2023-02-08T12:49:56.681Z,13.00
2023-02-08T12:52:34.373Z,10.07
2023-02-08T12:55:14.107Z,13.17
2023-02-08T12:57:45.676Z,10.57
2023-02-08T13:00:20.849Z,12.80
2023-02-08T13:02:57.482Z,12.00
2023-02-08T13:05:29.810Z,10.80
2023-02-08T13:08:04.639Z,11.90
2023-02-08T13:10:37.899Z,13.63
2023-02-08T13:13:13.398Z,8.70
2023-02-08T13:15:46.310Z,10.37
2023-02-08T13:18:18.693Z,11.40
2023-02-08T13:20:48.892Z,15.00
2023-02-08T13:23:25.533Z,10.00
2023-02-08T13:25:58.413Z,14.67
2023-02-08T13:28:27.879Z,9.53
2023-02-08T13:31:00.995Z,11.03
2023-02-08T13:33:35.833Z,10.43
2023-02-08T13:36:04.053Z,14.50
2023-02-08T13:38:34.764Z,12.23
2023-02-08T13:41:14.548Z,14.07
2023-02-08T13:43:46.845Z,11.87
2023-02-08T13:46:15.878Z,10.97
2023-02-08T13:48:46.148Z,10.03
2023-02-08T13:51:54.556Z,10.90
2023-02-08T13:54:22.525Z,11.13
2023-02-08T13:56:53.142Z,12.00
2023-02-08T13:59:42.226Z,16.80
2023-02-08T14:02:29.497Z,10.17
2023-02-08T14:05:31.027Z,14.43
2023-02-08T14:08:00.628Z,12.10
2023-02-08T14:10:37.796Z,11.17
2023-02-08T14:13:17.733Z,12.43
2023-02-08T14:15:45.768Z,11.40
2023-02-08T14:18:25.323Z,16.03
2023-02-08T14:21:02.540Z,12.87
2023-02-08T14:23:32.406Z,14.63
2023-02-08T14:26:07.148Z,8.60
2023-02-08T14:28:40.251Z,12.57
2023-02-08T14:31:11.059Z,9.00
2023-02-08T14:33:41.471Z,10.77
2023-02-08T14:36:24.586Z,14.30
2023-02-08T14:39:22.528Z,12.10
2023-02-08T14:41:57.189Z,14.17
2023-02-08T14:45:03.094Z,11.83
2023-02-08T14:47:55.054Z,10.30
2023-02-08T14:50:26.266Z,9.53
2023-02-08T14:53:06.793Z,12.80
2023-02-08T14:55:46.295Z,12.03
2023-02-08T14:58:27.947Z,10.83
2023-02-08T15:01:07.461Z,11.27
2023-02-08T15:03:37.733Z,11.07
2023-02-08T15:06:49.760Z,10.30
2023-02-08T15:09:21.573Z,9.70
2023-02-08T15:11:54.189Z,10.77
2023-02-08T15:14:22.609Z,9.47
2023-02-08T15:16:53.709Z,9.93
2023-02-08T15:19:25.262Z,10.73
2023-02-08T15:21:53.360Z,11.03
2023-02-08T15:24:23.398Z,9.93
2023-02-08T15:26:53.592Z,11.33
2023-02-08T15:29:30.028Z,8.87
2023-02-08T15:32:05.424Z,12.07
2023-02-08T15:34:33.327Z,11.87
2023-02-08T15:37:01.329Z,12.83
2023-02-08T15:39:35.171Z,12.53
2023-02-08T15:42:03.499Z,11.00
2023-02-08T15:44:33.305Z,11.13
2023-02-08T15:47:04.913Z,10.60
2023-02-08T15:49:36.508Z,11.47
2023-02-08T15:52:06.230Z,11.53
2023-02-08T15:54:34.107Z,11.47
2023-02-08T15:57:05.798Z,15.60
2023-02-08T15:59:37.703Z,11.13
2023-02-08T16:02:19.522Z,11.90
2023-02-08T16:04:48.784Z,12.77
2023-02-08T16:07:26.948Z,14.57
2023-02-08T16:09:55.382Z,7.53
2023-02-08T16:12:24.699Z,12.00
2023-02-08T16:14:55.993Z,10.97
2023-02-08T16:17:44.156Z,8.70
2023-02-08T16:20:33.812Z,14.23
2023-02-08T16:23:03.600Z,16.27
2023-02-08T16:25:44.407Z,12.50
2023-02-08T16:28:26.995Z,9.97
2023-02-08T16:30:55.773Z,11.50
2023-02-08T16:33:24.197Z,11.00
2023-02-08T16:35:53.428Z,10.17
2023-02-08T16:38:23.674Z,10.37
2023-02-08T16:40:53.615Z,13.87
2023-02-08T16:43:26.626Z,12.00
2023-02-08T16:46:25.193Z,19.60
2023-02-08T16:48:55.326Z,13.70
2023-02-08T16:51:26.330Z,13.70
2023-02-08T16:53:57.845Z,16.93
2023-02-08T16:56:25.720Z,18.83
2023-02-08T16:58:53.357Z,22.20
2023-02-08T17:01:23.804Z,22.97
2023-02-08T17:03:52.928Z,15.83
2023-02-08T17:06:30.137Z,15.00
2023-02-08T17:08:58.296Z,15.73
2023-02-08T17:11:26.312Z,18.87
2023-02-08T17:13:54.660Z,16.03
2023-02-08T17:16:24.910Z,13.70
2023-02-08T17:18:53.522Z,13.13
2023-02-08T17:21:21.169Z,10.87
2023-02-08T17:23:50.770Z,10.93
2023-02-08T17:26:23.002Z,18.37
2023-02-08T17:28:51.531Z,17.40
2023-02-08T17:31:19.429Z,12.63
2023-02-08T17:33:48.250Z,11.63
2023-02-08T17:36:16.552Z,11.67
2023-02-08T17:38:46.951Z,12.33
2023-02-08T17:41:17.927Z,11.70
2023-02-08T17:43:46.267Z,8.83
2023-02-08T17:46:16.958Z,11.60
2023-02-08T17:48:48.126Z,11.77
2023-02-08T17:51:18.949Z,14.17
2023-02-08T17:53:48.053Z,10.90
2023-02-08T17:56:18.783Z,10.07
2023-02-08T17:58:51.288Z,9.70
2023-02-08T18:01:23.720Z,7.93
2023-02-08T18:03:52.436Z,10.67
2023-02-08T18:06:21.080Z,10.37
2023-02-08T18:08:48.913Z,19.80
2023-02-08T18:11:20.259Z,10.53
2023-02-08T18:13:50.699Z,12.87
2023-02-08T18:16:20.788Z,9.83
2023-02-08T18:18:49.190Z,8.53
2023-02-08T18:21:19.560Z,10.80
2023-02-08T18:23:49.370Z,12.10
2023-02-08T18:26:20.928Z,15.23
2023-02-08T18:28:49.149Z,14.97
2023-02-08T18:31:20.069Z,14.23
2023-02-08T18:33:49.587Z,11.43
2023-02-08T18:36:17.859Z,17.60
2023-02-08T18:38:47.656Z,12.83
2023-02-08T18:41:19.890Z,12.67
2023-02-08T18:43:48.089Z,13.47
2023-02-08T18:46:18.811Z,9.83
2023-02-08T18:48:47.651Z,11.27
2023-02-08T18:51:19.528Z,13.53
2023-02-08T18:53:51.026Z,12.13
2023-02-08T18:56:23.881Z,13.63
2023-02-08T18:58:52.878Z,9.87
2023-02-08T19:01:23.064Z,13.13
2023-02-08T19:03:52.824Z,10.67
2023-02-08T19:06:24.790Z,13.00
2023-02-08T19:08:55.091Z,10.73
2023-02-08T19:11:26.191Z,11.07
2023-02-08T19:13:57.947Z,13.07
2023-02-08T19:16:27.582Z,17.37
2023-02-08T19:18:58.512Z,13.07
2023-02-08T19:21:26.099Z,11.40
2023-02-08T19:23:55.098Z,11.07
2023-02-08T19:26:26.074Z,10.27
2023-02-08T19:28:57.046Z,11.93
2023-02-08T19:31:25.967Z,15.97
2023-02-08T19:33:58.464Z,14.73
2023-02-08T19:36:28.404Z,15.63
2023-02-08T19:38:59.090Z,17.47
2023-02-08T19:41:32.210Z,16.03
2023-02-08T19:44:00.209Z,16.43
2023-02-08T19:46:29.342Z,15.57
2023-02-08T19:49:00.159Z,20.67
2023-02-08T19:51:28.889Z,15.07
2023-02-08T19:53:57.873Z,16.37
2023-02-08T19:56:25.472Z,17.57
2023-02-08T19:58:54.842Z,16.53
2023-02-08T20:01:23.833Z,15.43
2023-02-08T20:03:54.411Z,16.93
2023-02-08T20:06:24.732Z,12.40
2023-02-08T20:08:52.356Z,16.07
2023-02-08T20:11:23.253Z,17.73
2023-02-08T20:13:52.011Z,25.60
2023-02-08T20:16:22.863Z,24.67
2023-02-08T20:18:51.431Z,22.83
2023-02-08T20:21:20.018Z,28.07
2023-02-08T20:23:48.644Z,32.57
2023-02-08T20:26:19.174Z,17.97
2023-02-08T20:28:50.203Z,24.07
2023-02-08T20:31:19.595Z,20.97
2023-02-08T20:33:49.197Z,19.10
2023-02-08T20:36:18.988Z,19.37
2023-02-08T20:38:48.960Z,22.57
2023-02-08T20:41:17.532Z,17.90
2023-02-08T20:43:45.889Z,18.30
2023-02-08T20:46:16.638Z,25.90
2023-02-08T20:48:44.361Z,19.83
2023-02-08T20:51:15.421Z,21.63
2023-02-08T20:53:44.925Z,15.87
2023-02-08T20:56:15.003Z,14.37
2023-02-08T20:58:43.234Z,17.80
2023-02-08T21:01:15.591Z,15.00
2023-02-08T21:03:43.629Z,15.97
2023-02-08T21:06:14.977Z,20.37
2023-02-08T21:08:44.251Z,17.37
2023-02-08T21:11:12.542Z,24.07
2023-02-08T21:13:40.413Z,15.23
2023-02-08T21:16:09.648Z,18.87
2023-02-08T21:18:38.303Z,15.97
2023-02-08T21:21:06.832Z,15.13
2023-02-08T21:23:37.056Z,13.37
2023-02-08T21:26:07.197Z,13.00
2023-02-08T21:28:35.779Z,10.80
2023-02-08T21:31:06.835Z,15.20
2023-02-08T21:33:35.816Z,11.77
2023-02-08T21:36:04.953Z,13.20
2023-02-08T21:38:32.770Z,10.83
2023-02-08T21:41:07.377Z,12.77
2023-02-08T21:43:35.306Z,15.93
2023-02-08T21:46:04.205Z,11.23
2023-02-08T21:48:52.249Z,13.30
2023-02-08T21:51:38.797Z,10.23
2023-02-08T21:54:24.242Z,15.33
2023-02-08T21:56:53.458Z,16.73
2023-02-08T21:59:21.062Z,14.87
2023-02-08T22:01:48.723Z,13.33
2023-02-08T22:04:16.309Z,15.47
2023-02-08T22:06:50.200Z,14.13
2023-02-08T22:09:18.644Z,16.23
2023-02-08T22:11:48.097Z,16.37
2023-02-08T22:14:17.642Z,13.53
2023-02-08T22:16:45.243Z,16.37
2023-02-08T22:19:12.828Z,9.53
2023-02-08T22:21:40.578Z,10.13
2023-02-08T22:24:08.685Z,10.20
2023-02-08T22:26:36.631Z,12.77
2023-02-08T22:29:04.356Z,11.20
2023-02-08T22:31:33.750Z,10.40
2023-02-08T22:34:01.428Z,13.27
2023-02-08T22:36:29.689Z,12.83
2023-02-08T22:38:57.340Z,12.80
2023-02-08T22:41:25.411Z,15.20
2023-02-08T22:43:54.181Z,13.93
2023-02-08T22:46:22.238Z,14.67
2023-02-08T22:48:51.574Z,16.63
2023-02-08T22:51:21.589Z,10.33
2023-02-08T22:53:49.433Z,12.53
2023-02-08T22:56:18.450Z,11.33
2023-02-08T22:58:46.860Z,11.93
2023-02-08T23:01:16.679Z,13.40
2023-02-08T23:03:45.090Z,11.27
2023-02-08T23:06:17.126Z,13.37
2023-02-08T23:08:45.769Z,16.60
2023-02-08T23:11:14.489Z,14.20
2023-02-08T23:13:42.489Z,14.00
2023-02-08T23:16:13.165Z,14.97
2023-02-08T23:18:41.334Z,12.93
2023-02-08T23:21:10.331Z,18.83
2023-02-08T23:23:40.034Z,19.93
2023-02-08T23:26:08.352Z,16.77
2023-02-08T23:28:37.074Z,16.70
2023-02-08T23:31:05.930Z,18.70
2023-02-08T23:33:34.363Z,10.70
2023-02-08T23:36:06.033Z,12.07
2023-02-08T23:38:33.988Z,13.07
2023-02-08T23:41:04.985Z,13.70
2023-02-08T23:43:33.375Z,13.17
2023-02-08T23:46:00.967Z,14.27
2023-02-08T23:48:28.880Z,14.97
2023-02-08T23:50:59.626Z,12.97
2023-02-08T23:53:30.501Z,14.77
2023-02-08T23:56:11.169Z,14.63
2023-02-08T23:58:39.291Z,12.07
